sensor_id;sensor_type;location;lat;lon;timestamp;temperature;humidity
11748;DHT22;5931;48.832;9.072;2024-02-23T00:00:04;5.20;99.90
11748;DHT22;5931;48.832;9.072;2024-02-23T00:02:32;5.20;99.90
11748;DHT22;5931;48.832;9.072;2024-02-23T00:04:57;5.20;99.90
11748;DHT22;5931;48.832;9.072;2024-02-23T00:07:23;5.20;99.90
11748;DHT22;5931;48.832;9.072;2024-02-23T00:09:49;5.20;99.90
11748;DHT22;5931;48.832;9.072;2024-02-23T00:12:15;5.20;99.90
11748;DHT22;5931;48.832;9.072;2024-02-23T00:14:40;5.10;99.90
11748;DHT22;5931;48.832;9.072;2024-02-23T00:17:06;5.20;99.90
11748;DHT22;5931;48.832;9.072;2024-02-23T00:19:32;5.20;99.90
11748;DHT22;5931;48.832;9.072;2024-02-23T00:21:58;5.20;99.90
11748;DHT22;5931;48.832;9.072;2024-02-23T00:24:29;5.10;99.90
11748;DHT22;5931;48.832;9.072;2024-02-23T00:26:55;5.10;99.90
11748;DHT22;5931;48.832;9.072;2024-02-23T00:29:20;5.00;99.90
11748;DHT22;5931;48.832;9.072;2024-02-23T00:31:47;5.10;99.90
11748;DHT22;5931;48.832;9.072;2024-02-23T00:34:13;5.10;99.90
11748;DHT22;5931;48.832;9.072;2024-02-23T00:36:40;5.10;99.90
11748;DHT22;5931;48.832;9.072;2024-02-23T00:39:07;5.20;99.90
11748;DHT22;5931;48.832;9.072;2024-02-23T00:41:34;5.20;99.90
11748;DHT22;5931;48.832;9.072;2024-02-23T00:44:01;5.20;99.90
11748;DHT22;5931;48.832;9.072;2024-02-23T00:46:27;5.20;99.90
11748;DHT22;5931;48.832;9.072;2024-02-23T00:48:53;5.20;99.90
11748;DHT22;5931;48.832;9.072;2024-02-23T00:51:20;5.20;99.90
11748;DHT22;5931;48.832;9.072;2024-02-23T00:53:45;5.20;99.90
11748;DHT22;5931;48.832;9.072;2024-02-23T00:56:11;5.20;99.90
11748;DHT22;5931;48.832;9.072;2024-02-23T00:58:38;5.30;99.90
11748;DHT22;5931;48.832;9.072;2024-02-23T01:01:05;5.30;99.90
11748;DHT22;5931;48.832;9.072;2024-02-23T01:03:30;5.30;99.90
11748;DHT22;5931;48.832;9.072;2024-02-23T01:05:56;5.30;99.90
11748;DHT22;5931;48.832;9.072;2024-02-23T01:08:22;5.30;99.90
11748;DHT22;5931;48.832;9.072;2024-02-23T01:10:48;5.30;99.90
11748;DHT22;5931;48.832;9.072;2024-02-23T01:13:13;5.40;99.90
11748;DHT22;5931;48.832;9.072;2024-02-23T01:15:41;5.50;99.90
11748;DHT22;5931;48.832;9.072;2024-02-23T01:18:07;5.40;99.90
11748;DHT22;5931;48.832;9.072;2024-02-23T01:20:33;5.40;99.90
11748;DHT22;5931;48.832;9.072;2024-02-23T01:22:59;5.30;99.90
11748;DHT22;5931;48.832;9.072;2024-02-23T01:25:25;5.30;99.90
11748;DHT22;5931;48.832;9.072;2024-02-23T01:27:51;5.30;99.90
11748;DHT22;5931;48.832;9.072;2024-02-23T01:30:17;5.30;99.90
11748;DHT22;5931;48.832;9.072;2024-02-23T01:32:47;5.20;99.90
11748;DHT22;5931;48.832;9.072;2024-02-23T01:35:13;5.20;99.90
11748;DHT22;5931;48.832;9.072;2024-02-23T01:37:39;5.20;99.90
11748;DHT22;5931;48.832;9.072;2024-02-23T01:40:05;5.30;99.90
11748;DHT22;5931;48.832;9.072;2024-02-23T01:42:31;5.40;99.90
11748;DHT22;5931;48.832;9.072;2024-02-23T01:44:57;5.40;99.90
11748;DHT22;5931;48.832;9.072;2024-02-23T01:47:28;5.50;99.90
11748;DHT22;5931;48.832;9.072;2024-02-23T01:49:55;5.50;99.90
11748;DHT22;5931;48.832;9.072;2024-02-23T01:52:22;5.40;99.90
11748;DHT22;5931;48.832;9.072;2024-02-23T01:54:47;5.40;99.90
11748;DHT22;5931;48.832;9.072;2024-02-23T01:57:13;5.40;99.90
11748;DHT22;5931;48.832;9.072;2024-02-23T01:59:39;5.30;99.90
11748;DHT22;5931;48.832;9.072;2024-02-23T02:02:06;5.30;99.90
11748;DHT22;5931;48.832;9.072;2024-02-23T02:04:32;5.30;99.90
11748;DHT22;5931;48.832;9.072;2024-02-23T02:06:59;5.40;99.90
11748;DHT22;5931;48.832;9.072;2024-02-23T02:09:25;5.40;99.90
11748;DHT22;5931;48.832;9.072;2024-02-23T02:11:51;5.40;99.90
11748;DHT22;5931;48.832;9.072;2024-02-23T02:14:17;5.40;99.90
11748;DHT22;5931;48.832;9.072;2024-02-23T02:16:44;5.30;99.90
11748;DHT22;5931;48.832;9.072;2024-02-23T02:19:13;5.30;99.90
11748;DHT22;5931;48.832;9.072;2024-02-23T02:21:40;5.20;99.90
11748;DHT22;5931;48.832;9.072;2024-02-23T02:24:07;5.20;99.90
11748;DHT22;5931;48.832;9.072;2024-02-23T02:26:35;5.10;99.90
11748;DHT22;5931;48.832;9.072;2024-02-23T02:29:01;5.00;99.90
11748;DHT22;5931;48.832;9.072;2024-02-23T02:31:27;4.90;99.90
11748;DHT22;5931;48.832;9.072;2024-02-23T02:33:53;4.80;99.90
11748;DHT22;5931;48.832;9.072;2024-02-23T02:36:19;4.80;99.90
11748;DHT22;5931;48.832;9.072;2024-02-23T02:38:44;4.70;99.90
11748;DHT22;5931;48.832;9.072;2024-02-23T02:41:10;4.70;99.90
11748;DHT22;5931;48.832;9.072;2024-02-23T02:43:36;4.70;99.90
11748;DHT22;5931;48.832;9.072;2024-02-23T02:46:02;4.70;99.90
11748;DHT22;5931;48.832;9.072;2024-02-23T02:48:27;4.60;99.90
11748;DHT22;5931;48.832;9.072;2024-02-23T02:50:53;4.60;99.90
11748;DHT22;5931;48.832;9.072;2024-02-23T02:53:20;4.50;99.90
11748;DHT22;5931;48.832;9.072;2024-02-23T02:55:45;4.50;99.90
11748;DHT22;5931;48.832;9.072;2024-02-23T02:58:11;4.50;99.90
11748;DHT22;5931;48.832;9.072;2024-02-23T03:00:38;4.40;99.90
11748;DHT22;5931;48.832;9.072;2024-02-23T03:03:04;4.40;99.90
11748;DHT22;5931;48.832;9.072;2024-02-23T03:05:30;4.40;99.90
11748;DHT22;5931;48.832;9.072;2024-02-23T03:07:56;4.40;99.90
11748;DHT22;5931;48.832;9.072;2024-02-23T03:10:22;4.40;99.90
11748;DHT22;5931;48.832;9.072;2024-02-23T03:12:48;4.40;99.90
11748;DHT22;5931;48.832;9.072;2024-02-23T03:15:14;4.40;99.90
11748;DHT22;5931;48.832;9.072;2024-02-23T03:17:39;4.40;99.90
11748;DHT22;5931;48.832;9.072;2024-02-23T03:20:05;4.50;99.90
11748;DHT22;5931;48.832;9.072;2024-02-23T03:22:35;4.40;99.90
11748;DHT22;5931;48.832;9.072;2024-02-23T03:25:02;4.40;99.90
11748;DHT22;5931;48.832;9.072;2024-02-23T03:27:34;4.40;99.90
11748;DHT22;5931;48.832;9.072;2024-02-23T03:30:00;4.40;99.90
11748;DHT22;5931;48.832;9.072;2024-02-23T03:32:25;4.30;99.90
11748;DHT22;5931;48.832;9.072;2024-02-23T03:34:52;4.30;99.90
11748;DHT22;5931;48.832;9.072;2024-02-23T03:37:17;4.30;99.90
11748;DHT22;5931;48.832;9.072;2024-02-23T03:39:43;4.30;99.90
11748;DHT22;5931;48.832;9.072;2024-02-23T03:42:09;4.20;99.90
11748;DHT22;5931;48.832;9.072;2024-02-23T03:44:35;4.10;99.90
11748;DHT22;5931;48.832;9.072;2024-02-23T03:47:01;4.10;99.90
11748;DHT22;5931;48.832;9.072;2024-02-23T03:49:27;4.20;99.90
11748;DHT22;5931;48.832;9.072;2024-02-23T03:51:52;4.10;99.90
11748;DHT22;5931;48.832;9.072;2024-02-23T03:54:18;4.00;99.90
11748;DHT22;5931;48.832;9.072;2024-02-23T03:56:44;4.20;99.90
11748;DHT22;5931;48.832;9.072;2024-02-23T03:59:10;4.10;99.90
11748;DHT22;5931;48.832;9.072;2024-02-23T04:01:37;4.00;99.90
11748;DHT22;5931;48.832;9.072;2024-02-23T04:04:04;3.90;99.90
11748;DHT22;5931;48.832;9.072;2024-02-23T04:06:30;3.90;99.90
11748;DHT22;5931;48.832;9.072;2024-02-23T04:08:56;3.90;99.90
11748;DHT22;5931;48.832;9.072;2024-02-23T04:11:22;3.90;99.90
11748;DHT22;5931;48.832;9.072;2024-02-23T04:13:47;4.00;99.90
11748;DHT22;5931;48.832;9.072;2024-02-23T04:16:13;3.90;99.90
11748;DHT22;5931;48.832;9.072;2024-02-23T04:18:39;3.90;99.90
11748;DHT22;5931;48.832;9.072;2024-02-23T04:21:05;3.70;99.90
11748;DHT22;5931;48.832;9.072;2024-02-23T04:23:31;3.70;99.90
11748;DHT22;5931;48.832;9.072;2024-02-23T04:25:56;3.70;99.90
11748;DHT22;5931;48.832;9.072;2024-02-23T04:28:22;3.70;99.90
11748;DHT22;5931;48.832;9.072;2024-02-23T04:30:48;3.60;99.90
11748;DHT22;5931;48.832;9.072;2024-02-23T04:33:14;3.70;99.90
11748;DHT22;5931;48.832;9.072;2024-02-23T04:35:39;3.60;99.90
11748;DHT22;5931;48.832;9.072;2024-02-23T04:38:05;3.70;99.90
11748;DHT22;5931;48.832;9.072;2024-02-23T04:40:31;3.70;99.90
11748;DHT22;5931;48.832;9.072;2024-02-23T04:42:57;3.70;99.90
11748;DHT22;5931;48.832;9.072;2024-02-23T04:45:23;3.70;99.90
11748;DHT22;5931;48.832;9.072;2024-02-23T04:47:48;3.60;99.90
11748;DHT22;5931;48.832;9.072;2024-02-23T04:50:14;3.50;99.90
11748;DHT22;5931;48.832;9.072;2024-02-23T04:52:40;3.50;99.90
11748;DHT22;5931;48.832;9.072;2024-02-23T04:55:06;3.60;99.90
11748;DHT22;5931;48.832;9.072;2024-02-23T04:57:32;3.60;99.90
11748;DHT22;5931;48.832;9.072;2024-02-23T04:59:58;3.50;99.90
11748;DHT22;5931;48.832;9.072;2024-02-23T05:02:24;3.50;99.90
11748;DHT22;5931;48.832;9.072;2024-02-23T05:04:54;3.50;99.90
11748;DHT22;5931;48.832;9.072;2024-02-23T05:07:19;3.40;99.90
11748;DHT22;5931;48.832;9.072;2024-02-23T05:09:45;3.30;99.90
11748;DHT22;5931;48.832;9.072;2024-02-23T05:12:11;3.40;99.90
11748;DHT22;5931;48.832;9.072;2024-02-23T05:14:37;3.40;99.90
11748;DHT22;5931;48.832;9.072;2024-02-23T05:17:02;3.30;99.90
11748;DHT22;5931;48.832;9.072;2024-02-23T05:19:29;3.20;99.90
11748;DHT22;5931;48.832;9.072;2024-02-23T05:21:54;3.20;99.90
11748;DHT22;5931;48.832;9.072;2024-02-23T05:24:20;3.20;99.90
11748;DHT22;5931;48.832;9.072;2024-02-23T05:26:46;3.10;99.90
11748;DHT22;5931;48.832;9.072;2024-02-23T05:29:12;3.20;99.90
11748;DHT22;5931;48.832;9.072;2024-02-23T05:34:10;3.10;99.90
11748;DHT22;5931;48.832;9.072;2024-02-23T05:36:36;3.10;99.90
11748;DHT22;5931;48.832;9.072;2024-02-23T05:39:02;3.10;99.90
11748;DHT22;5931;48.832;9.072;2024-02-23T05:41:28;3.10;99.90
11748;DHT22;5931;48.832;9.072;2024-02-23T05:43:54;3.20;99.90
11748;DHT22;5931;48.832;9.072;2024-02-23T05:46:19;3.20;99.90
11748;DHT22;5931;48.832;9.072;2024-02-23T05:48:46;3.20;99.90
11748;DHT22;5931;48.832;9.072;2024-02-23T05:51:12;3.30;99.90
11748;DHT22;5931;48.832;9.072;2024-02-23T05:53:38;3.30;99.90
11748;DHT22;5931;48.832;9.072;2024-02-23T05:56:04;3.30;99.90
11748;DHT22;5931;48.832;9.072;2024-02-23T05:58:30;3.30;99.90
11748;DHT22;5931;48.832;9.072;2024-02-23T06:00:55;3.30;99.90
11748;DHT22;5931;48.832;9.072;2024-02-23T06:03:21;3.40;99.90
11748;DHT22;5931;48.832;9.072;2024-02-23T06:05:47;3.40;99.90
11748;DHT22;5931;48.832;9.072;2024-02-23T06:08:13;3.50;99.90
11748;DHT22;5931;48.832;9.072;2024-02-23T06:10:38;3.50;99.90
11748;DHT22;5931;48.832;9.072;2024-02-23T06:13:04;3.50;99.90
11748;DHT22;5931;48.832;9.072;2024-02-23T06:15:30;3.60;99.90
11748;DHT22;5931;48.832;9.072;2024-02-23T06:17:55;3.60;99.90
11748;DHT22;5931;48.832;9.072;2024-02-23T06:20:21;3.70;99.90
11748;DHT22;5931;48.832;9.072;2024-02-23T06:22:47;3.60;99.90
11748;DHT22;5931;48.832;9.072;2024-02-23T06:25:13;3.50;99.90
11748;DHT22;5931;48.832;9.072;2024-02-23T06:27:39;3.40;99.90
11748;DHT22;5931;48.832;9.072;2024-02-23T06:30:05;3.50;99.90
11748;DHT22;5931;48.832;9.072;2024-02-23T06:32:31;3.50;99.90
11748;DHT22;5931;48.832;9.072;2024-02-23T06:34:57;3.40;99.90
11748;DHT22;5931;48.832;9.072;2024-02-23T06:37:23;3.40;99.90
11748;DHT22;5931;48.832;9.072;2024-02-23T06:39:48;3.40;99.90
11748;DHT22;5931;48.832;9.072;2024-02-23T06:42:20;3.40;99.90
11748;DHT22;5931;48.832;9.072;2024-02-23T06:44:47;3.30;99.90
11748;DHT22;5931;48.832;9.072;2024-02-23T06:47:13;3.40;99.90
11748;DHT22;5931;48.832;9.072;2024-02-23T06:49:43;3.40;99.90
11748;DHT22;5931;48.832;9.072;2024-02-23T06:52:10;3.50;99.90
11748;DHT22;5931;48.832;9.072;2024-02-23T06:54:36;3.50;99.90
11748;DHT22;5931;48.832;9.072;2024-02-23T06:57:02;3.60;99.90
11748;DHT22;5931;48.832;9.072;2024-02-23T06:59:28;3.70;99.90
11748;DHT22;5931;48.832;9.072;2024-02-23T07:01:54;3.80;99.90
11748;DHT22;5931;48.832;9.072;2024-02-23T07:04:21;3.90;99.90
11748;DHT22;5931;48.832;9.072;2024-02-23T07:06:46;4.00;99.90
11748;DHT22;5931;48.832;9.072;2024-02-23T07:09:12;4.00;99.90
11748;DHT22;5931;48.832;9.072;2024-02-23T07:11:39;4.20;99.90
11748;DHT22;5931;48.832;9.072;2024-02-23T07:14:07;4.20;99.90
11748;DHT22;5931;48.832;9.072;2024-02-23T07:16:38;4.30;99.90
11748;DHT22;5931;48.832;9.072;2024-02-23T07:19:05;4.20;99.90
11748;DHT22;5931;48.832;9.072;2024-02-23T07:21:31;4.30;99.90
11748;DHT22;5931;48.832;9.072;2024-02-23T07:23:56;4.30;99.90
11748;DHT22;5931;48.832;9.072;2024-02-23T07:26:22;4.40;99.90
11748;DHT22;5931;48.832;9.072;2024-02-23T07:28:48;4.50;99.90
11748;DHT22;5931;48.832;9.072;2024-02-23T07:31:15;4.50;99.90
11748;DHT22;5931;48.832;9.072;2024-02-23T07:33:42;4.60;99.90
11748;DHT22;5931;48.832;9.072;2024-02-23T07:36:14;4.60;99.90
11748;DHT22;5931;48.832;9.072;2024-02-23T07:38:39;4.70;99.90
11748;DHT22;5931;48.832;9.072;2024-02-23T07:41:05;4.70;99.90
11748;DHT22;5931;48.832;9.072;2024-02-23T07:43:31;4.70;99.90
11748;DHT22;5931;48.832;9.072;2024-02-23T07:45:57;4.80;99.90
11748;DHT22;5931;48.832;9.072;2024-02-23T07:48:22;4.90;99.90
11748;DHT22;5931;48.832;9.072;2024-02-23T07:50:48;4.90;99.90
11748;DHT22;5931;48.832;9.072;2024-02-23T07:53:14;4.90;99.90
11748;DHT22;5931;48.832;9.072;2024-02-23T07:55:40;4.90;99.90
11748;DHT22;5931;48.832;9.072;2024-02-23T07:58:06;4.80;99.90
11748;DHT22;5931;48.832;9.072;2024-02-23T08:00:32;4.70;99.90
11748;DHT22;5931;48.832;9.072;2024-02-23T08:03:00;4.70;99.90
11748;DHT22;5931;48.832;9.072;2024-02-23T08:05:25;4.60;99.90
11748;DHT22;5931;48.832;9.072;2024-02-23T08:07:51;4.40;99.90
11748;DHT22;5931;48.832;9.072;2024-02-23T08:10:17;4.30;99.90
11748;DHT22;5931;48.832;9.072;2024-02-23T08:12:43;4.30;99.90
11748;DHT22;5931;48.832;9.072;2024-02-23T08:15:09;4.30;99.90
11748;DHT22;5931;48.832;9.072;2024-02-23T08:17:35;4.30;99.90
11748;DHT22;5931;48.832;9.072;2024-02-23T08:20:01;4.50;99.90
11748;DHT22;5931;48.832;9.072;2024-02-23T08:22:27;4.50;99.90
11748;DHT22;5931;48.832;9.072;2024-02-23T08:24:53;4.50;99.90
11748;DHT22;5931;48.832;9.072;2024-02-23T08:27:19;4.40;99.90
11748;DHT22;5931;48.832;9.072;2024-02-23T08:29:45;4.40;99.90
11748;DHT22;5931;48.832;9.072;2024-02-23T08:32:10;4.40;99.90
11748;DHT22;5931;48.832;9.072;2024-02-23T08:34:36;4.40;99.90
11748;DHT22;5931;48.832;9.072;2024-02-23T08:37:02;4.30;99.90
11748;DHT22;5931;48.832;9.072;2024-02-23T08:39:28;4.30;99.90
11748;DHT22;5931;48.832;9.072;2024-02-23T08:41:54;4.30;99.90
11748;DHT22;5931;48.832;9.072;2024-02-23T08:44:20;4.30;99.90
11748;DHT22;5931;48.832;9.072;2024-02-23T08:46:47;4.30;99.90
11748;DHT22;5931;48.832;9.072;2024-02-23T08:49:14;4.40;99.90
11748;DHT22;5931;48.832;9.072;2024-02-23T08:51:40;4.40;99.90
11748;DHT22;5931;48.832;9.072;2024-02-23T08:54:06;4.40;99.90
11748;DHT22;5931;48.832;9.072;2024-02-23T08:56:42;4.40;99.90
11748;DHT22;5931;48.832;9.072;2024-02-23T08:59:08;4.40;99.90
11748;DHT22;5931;48.832;9.072;2024-02-23T09:01:35;4.40;99.90
11748;DHT22;5931;48.832;9.072;2024-02-23T09:04:01;4.40;99.90
11748;DHT22;5931;48.832;9.072;2024-02-23T09:06:27;4.50;99.90
11748;DHT22;5931;48.832;9.072;2024-02-23T09:08:52;4.60;99.90
11748;DHT22;5931;48.832;9.072;2024-02-23T09:11:18;4.70;99.90
11748;DHT22;5931;48.832;9.072;2024-02-23T09:13:44;4.70;99.90
11748;DHT22;5931;48.832;9.072;2024-02-23T09:16:10;4.60;99.90
11748;DHT22;5931;48.832;9.072;2024-02-23T09:18:36;4.60;99.90
11748;DHT22;5931;48.832;9.072;2024-02-23T09:21:02;4.50;99.90
11748;DHT22;5931;48.832;9.072;2024-02-23T09:23:27;4.50;99.90
11748;DHT22;5931;48.832;9.072;2024-02-23T09:25:53;4.40;99.90
11748;DHT22;5931;48.832;9.072;2024-02-23T09:28:19;4.40;99.90
11748;DHT22;5931;48.832;9.072;2024-02-23T09:30:46;4.50;99.90
11748;DHT22;5931;48.832;9.072;2024-02-23T09:33:12;4.60;99.90
11748;DHT22;5931;48.832;9.072;2024-02-23T09:35:37;4.70;99.90
11748;DHT22;5931;48.832;9.072;2024-02-23T09:38:03;4.80;99.90
11748;DHT22;5931;48.832;9.072;2024-02-23T09:40:29;5.10;99.90
11748;DHT22;5931;48.832;9.072;2024-02-23T09:42:56;5.30;99.90
11748;DHT22;5931;48.832;9.072;2024-02-23T09:45:26;5.50;99.90
11748;DHT22;5931;48.832;9.072;2024-02-23T09:47:56;5.70;99.90
11748;DHT22;5931;48.832;9.072;2024-02-23T09:50:23;5.80;99.90
11748;DHT22;5931;48.832;9.072;2024-02-23T09:52:50;5.90;99.90
11748;DHT22;5931;48.832;9.072;2024-02-23T09:55:17;6.10;99.90
11748;DHT22;5931;48.832;9.072;2024-02-23T09:57:45;6.40;99.90
11748;DHT22;5931;48.832;9.072;2024-02-23T10:00:17;6.50;99.90
11748;DHT22;5931;48.832;9.072;2024-02-23T10:02:43;6.70;99.90
11748;DHT22;5931;48.832;9.072;2024-02-23T10:05:14;7.00;99.90
11748;DHT22;5931;48.832;9.072;2024-02-23T10:07:40;7.20;99.90
11748;DHT22;5931;48.832;9.072;2024-02-23T10:10:09;7.40;99.90
11748;DHT22;5931;48.832;9.072;2024-02-23T10:12:36;7.50;99.90
11748;DHT22;5931;48.832;9.072;2024-02-23T10:15:03;7.60;99.90
11748;DHT22;5931;48.832;9.072;2024-02-23T10:17:30;7.70;99.90
11748;DHT22;5931;48.832;9.072;2024-02-23T10:19:56;7.80;99.90
11748;DHT22;5931;48.832;9.072;2024-02-23T10:22:25;7.70;99.90
11748;DHT22;5931;48.832;9.072;2024-02-23T10:24:51;7.70;99.90
11748;DHT22;5931;48.832;9.072;2024-02-23T10:27:17;7.80;99.90
11748;DHT22;5931;48.832;9.072;2024-02-23T10:29:43;7.80;99.90
11748;DHT22;5931;48.832;9.072;2024-02-23T10:32:14;7.80;99.90
11748;DHT22;5931;48.832;9.072;2024-02-23T10:34:42;7.80;99.90
11748;DHT22;5931;48.832;9.072;2024-02-23T10:37:08;8.00;99.90
11748;DHT22;5931;48.832;9.072;2024-02-23T10:39:36;8.30;99.90
11748;DHT22;5931;48.832;9.072;2024-02-23T10:42:04;8.50;99.90
11748;DHT22;5931;48.832;9.072;2024-02-23T10:44:31;8.80;99.90
11748;DHT22;5931;48.832;9.072;2024-02-23T10:46:58;8.90;99.90
11748;DHT22;5931;48.832;9.072;2024-02-23T10:49:28;8.90;99.90
11748;DHT22;5931;48.832;9.072;2024-02-23T10:51:54;8.90;99.90
11748;DHT22;5931;48.832;9.072;2024-02-23T10:54:20;8.80;99.90
11748;DHT22;5931;48.832;9.072;2024-02-23T10:56:48;8.80;99.90
11748;DHT22;5931;48.832;9.072;2024-02-23T10:59:14;8.90;99.90
11748;DHT22;5931;48.832;9.072;2024-02-23T11:01:49;9.10;99.90
11748;DHT22;5931;48.832;9.072;2024-02-23T11:04:16;9.30;99.90
11748;DHT22;5931;48.832;9.072;2024-02-23T11:06:42;9.00;99.90
11748;DHT22;5931;48.832;9.072;2024-02-23T11:09:12;8.80;99.90
11748;DHT22;5931;48.832;9.072;2024-02-23T11:11:38;8.70;99.90
11748;DHT22;5931;48.832;9.072;2024-02-23T11:14:08;8.80;99.90
11748;DHT22;5931;48.832;9.072;2024-02-23T11:16:39;9.00;99.90
11748;DHT22;5931;48.832;9.072;2024-02-23T11:19:09;9.20;99.90
11748;DHT22;5931;48.832;9.072;2024-02-23T11:21:37;9.20;99.90
11748;DHT22;5931;48.832;9.072;2024-02-23T11:24:04;9.30;99.90
11748;DHT22;5931;48.832;9.072;2024-02-23T11:26:30;9.30;99.90
11748;DHT22;5931;48.832;9.072;2024-02-23T11:28:57;9.40;99.90
11748;DHT22;5931;48.832;9.072;2024-02-23T11:31:28;9.60;99.90
11748;DHT22;5931;48.832;9.072;2024-02-23T11:33:56;9.60;99.90
11748;DHT22;5931;48.832;9.072;2024-02-23T11:36:34;9.50;99.90
11748;DHT22;5931;48.832;9.072;2024-02-23T11:39:01;9.50;99.90
11748;DHT22;5931;48.832;9.072;2024-02-23T11:41:28;9.60;99.90
11748;DHT22;5931;48.832;9.072;2024-02-23T11:43:55;9.30;99.90
11748;DHT22;5931;48.832;9.072;2024-02-23T11:46:22;9.30;99.90
11748;DHT22;5931;48.832;9.072;2024-02-23T11:48:49;9.20;99.90
11748;DHT22;5931;48.832;9.072;2024-02-23T11:51:22;9.20;99.90
11748;DHT22;5931;48.832;9.072;2024-02-23T11:53:49;9.10;99.90
11748;DHT22;5931;48.832;9.072;2024-02-23T11:56:15;9.10;99.90
11748;DHT22;5931;48.832;9.072;2024-02-23T11:58:41;9.10;99.90
11748;DHT22;5931;48.832;9.072;2024-02-23T12:01:07;9.10;99.90
11748;DHT22;5931;48.832;9.072;2024-02-23T12:03:33;9.20;99.90
11748;DHT22;5931;48.832;9.072;2024-02-23T12:06:01;9.20;99.90
11748;DHT22;5931;48.832;9.072;2024-02-23T12:08:27;9.10;99.90
11748;DHT22;5931;48.832;9.072;2024-02-23T12:10:55;9.00;99.90
11748;DHT22;5931;48.832;9.072;2024-02-23T12:13:21;9.20;99.90
11748;DHT22;5931;48.832;9.072;2024-02-23T12:15:47;9.40;99.90
11748;DHT22;5931;48.832;9.072;2024-02-23T12:18:14;9.70;99.90
11748;DHT22;5931;48.832;9.072;2024-02-23T12:20:43;9.90;99.90
11748;DHT22;5931;48.832;9.072;2024-02-23T12:23:08;9.90;99.90
11748;DHT22;5931;48.832;9.072;2024-02-23T12:25:35;10.00;99.90
11748;DHT22;5931;48.832;9.072;2024-02-23T12:28:01;9.90;99.90
11748;DHT22;5931;48.832;9.072;2024-02-23T12:30:30;9.80;99.90
11748;DHT22;5931;48.832;9.072;2024-02-23T12:33:07;9.80;99.90
11748;DHT22;5931;48.832;9.072;2024-02-23T12:35:34;9.70;99.90
11748;DHT22;5931;48.832;9.072;2024-02-23T12:38:01;9.60;99.90
11748;DHT22;5931;48.832;9.072;2024-02-23T12:40:27;9.70;99.90
11748;DHT22;5931;48.832;9.072;2024-02-23T12:42:52;9.70;99.90
11748;DHT22;5931;48.832;9.072;2024-02-23T12:45:18;9.60;99.90
11748;DHT22;5931;48.832;9.072;2024-02-23T12:47:44;9.60;99.90
11748;DHT22;5931;48.832;9.072;2024-02-23T12:50:10;9.60;99.90
11748;DHT22;5931;48.832;9.072;2024-02-23T12:52:36;9.60;99.90
11748;DHT22;5931;48.832;9.072;2024-02-23T12:55:02;9.60;99.90
11748;DHT22;5931;48.832;9.072;2024-02-23T12:57:28;9.60;99.90
11748;DHT22;5931;48.832;9.072;2024-02-23T12:59:54;9.60;99.90
11748;DHT22;5931;48.832;9.072;2024-02-23T13:02:20;9.40;99.90
11748;DHT22;5931;48.832;9.072;2024-02-23T13:04:46;9.30;99.90
11748;DHT22;5931;48.832;9.072;2024-02-23T13:07:15;9.30;99.90
11748;DHT22;5931;48.832;9.072;2024-02-23T13:09:42;9.10;99.90
11748;DHT22;5931;48.832;9.072;2024-02-23T13:12:08;9.20;99.90
11748;DHT22;5931;48.832;9.072;2024-02-23T13:14:34;9.40;99.90
11748;DHT22;5931;48.832;9.072;2024-02-23T13:17:00;9.50;99.90
11748;DHT22;5931;48.832;9.072;2024-02-23T13:19:25;9.70;99.90
11748;DHT22;5931;48.832;9.072;2024-02-23T13:21:52;9.70;99.90
11748;DHT22;5931;48.832;9.072;2024-02-23T13:24:17;9.70;99.90
11748;DHT22;5931;48.832;9.072;2024-02-23T13:26:43;9.60;99.90
11748;DHT22;5931;48.832;9.072;2024-02-23T13:29:09;9.70;99.90
11748;DHT22;5931;48.832;9.072;2024-02-23T13:31:36;9.90;99.90
11748;DHT22;5931;48.832;9.072;2024-02-23T13:34:04;10.00;99.90
11748;DHT22;5931;48.832;9.072;2024-02-23T13:36:29;9.90;99.90
11748;DHT22;5931;48.832;9.072;2024-02-23T13:38:55;9.80;99.90
11748;DHT22;5931;48.832;9.072;2024-02-23T13:41:21;9.70;99.90
11748;DHT22;5931;48.832;9.072;2024-02-23T13:43:47;9.80;99.90
11748;DHT22;5931;48.832;9.072;2024-02-23T13:46:13;9.80;99.90
11748;DHT22;5931;48.832;9.072;2024-02-23T13:48:39;9.80;99.90
11748;DHT22;5931;48.832;9.072;2024-02-23T13:51:05;9.70;99.90
11748;DHT22;5931;48.832;9.072;2024-02-23T13:53:31;9.60;99.90
11748;DHT22;5931;48.832;9.072;2024-02-23T13:55:58;9.40;99.90
11748;DHT22;5931;48.832;9.072;2024-02-23T13:58:27;9.40;99.90
11748;DHT22;5931;48.832;9.072;2024-02-23T14:00:53;9.50;99.90
11748;DHT22;5931;48.832;9.072;2024-02-23T14:03:21;9.60;99.90
11748;DHT22;5931;48.832;9.072;2024-02-23T14:05:48;9.70;99.90
11748;DHT22;5931;48.832;9.072;2024-02-23T14:08:14;10.00;99.90
11748;DHT22;5931;48.832;9.072;2024-02-23T14:10:40;10.10;99.90
11748;DHT22;5931;48.832;9.072;2024-02-23T14:13:06;10.20;99.90
11748;DHT22;5931;48.832;9.072;2024-02-23T14:15:32;10.20;99.90
11748;DHT22;5931;48.832;9.072;2024-02-23T14:17:58;10.00;99.90
11748;DHT22;5931;48.832;9.072;2024-02-23T14:20:24;10.10;99.90
11748;DHT22;5931;48.832;9.072;2024-02-23T14:22:50;10.10;99.90
11748;DHT22;5931;48.832;9.072;2024-02-23T14:25:18;10.10;99.90
11748;DHT22;5931;48.832;9.072;2024-02-23T14:27:43;10.20;99.90
11748;DHT22;5931;48.832;9.072;2024-02-23T14:30:09;10.30;99.90
11748;DHT22;5931;48.832;9.072;2024-02-23T14:32:35;10.40;99.90
11748;DHT22;5931;48.832;9.072;2024-02-23T14:35:02;10.50;99.90
11748;DHT22;5931;48.832;9.072;2024-02-23T14:37:29;10.20;99.90
11748;DHT22;5931;48.832;9.072;2024-02-23T14:39:55;10.10;99.90
11748;DHT22;5931;48.832;9.072;2024-02-23T14:42:21;9.90;99.90
11748;DHT22;5931;48.832;9.072;2024-02-23T14:44:47;9.70;99.90
11748;DHT22;5931;48.832;9.072;2024-02-23T14:47:12;9.80;99.90
11748;DHT22;5931;48.832;9.072;2024-02-23T14:49:38;9.70;99.90
11748;DHT22;5931;48.832;9.072;2024-02-23T14:52:04;9.60;99.90
11748;DHT22;5931;48.832;9.072;2024-02-23T14:54:30;9.60;99.90
11748;DHT22;5931;48.832;9.072;2024-02-23T14:56:56;9.60;99.90
11748;DHT22;5931;48.832;9.072;2024-02-23T14:59:22;9.50;99.90
11748;DHT22;5931;48.832;9.072;2024-02-23T15:01:48;9.40;99.90
11748;DHT22;5931;48.832;9.072;2024-02-23T15:04:14;9.40;99.90
11748;DHT22;5931;48.832;9.072;2024-02-23T15:06:39;9.20;99.90
11748;DHT22;5931;48.832;9.072;2024-02-23T15:09:05;9.10;99.90
11748;DHT22;5931;48.832;9.072;2024-02-23T15:11:31;9.00;99.90
11748;DHT22;5931;48.832;9.072;2024-02-23T15:13:57;8.80;99.90
11748;DHT22;5931;48.832;9.072;2024-02-23T15:16:24;8.80;99.90
11748;DHT22;5931;48.832;9.072;2024-02-23T15:18:50;8.70;99.90
11748;DHT22;5931;48.832;9.072;2024-02-23T15:21:16;8.60;99.90
11748;DHT22;5931;48.832;9.072;2024-02-23T15:23:43;8.50;99.90
11748;DHT22;5931;48.832;9.072;2024-02-23T15:26:10;8.40;99.90
11748;DHT22;5931;48.832;9.072;2024-02-23T15:28:37;8.50;99.90
11748;DHT22;5931;48.832;9.072;2024-02-23T15:31:03;8.60;99.90
11748;DHT22;5931;48.832;9.072;2024-02-23T15:33:29;8.70;99.90
11748;DHT22;5931;48.832;9.072;2024-02-23T15:35:55;8.70;99.90
11748;DHT22;5931;48.832;9.072;2024-02-23T15:38:21;8.70;99.90
11748;DHT22;5931;48.832;9.072;2024-02-23T15:40:47;8.60;99.90
11748;DHT22;5931;48.832;9.072;2024-02-23T15:43:15;8.50;99.90
11748;DHT22;5931;48.832;9.072;2024-02-23T15:45:41;8.40;99.90
11748;DHT22;5931;48.832;9.072;2024-02-23T15:48:08;8.60;99.90
11748;DHT22;5931;48.832;9.072;2024-02-23T15:50:34;8.80;99.90
11748;DHT22;5931;48.832;9.072;2024-02-23T15:53:00;8.80;99.90
11748;DHT22;5931;48.832;9.072;2024-02-23T15:55:30;8.70;99.90
11748;DHT22;5931;48.832;9.072;2024-02-23T15:57:56;8.40;99.90